createdAt,value
2023-05-10T00:01:14.947Z,4.32
2023-05-10T00:03:41.910Z,5.20
2023-05-10T00:06:08.592Z,4.13
2023-05-10T00:08:35.237Z,4.63
2023-05-10T00:11:01.893Z,5.45
2023-05-10T00:13:28.732Z,4.60
2023-05-10T00:15:55.489Z,4.22
2023-05-10T00:18:22.102Z,4.80
2023-05-10T00:20:49.813Z,4.15
2023-05-10T00:23:16.495Z,3.85
2023-05-10T00:25:43.184Z,3.75
2023-05-10T00:28:09.841Z,3.92
2023-05-10T00:30:36.534Z,3.88
2023-05-10T00:33:03.961Z,4.20
2023-05-10T00:35:30.739Z,4.13
2023-05-10T00:37:57.488Z,3.95
2023-05-10T00:40:24.176Z,4.38
2023-05-10T00:42:50.925Z,4.00
2023-05-10T00:45:17.562Z,4.20
2023-05-10T00:47:44.209Z,4.93
2023-05-10T00:50:11.053Z,3.65
2023-05-10T00:52:37.677Z,3.80
2023-05-10T00:55:05.117Z,3.88
2023-05-10T00:57:31.896Z,3.90
2023-05-10T00:59:58.850Z,3.58
2023-05-10T01:02:25.628Z,4.28
2023-05-10T01:04:53.005Z,3.97
2023-05-10T01:07:19.917Z,3.55
2023-05-10T01:09:46.592Z,4.15
2023-05-10T01:12:13.285Z,3.55
2023-05-10T01:14:40.019Z,4.78
2023-05-10T01:17:07.057Z,4.63
2023-05-10T01:19:35.976Z,4.03
2023-05-10T01:22:32.562Z,4.63
2023-05-10T01:25:05.065Z,4.47
2023-05-10T01:27:59.449Z,4.72
2023-05-10T01:30:34.902Z,4.72
2023-05-10T01:33:27.857Z,4.45
2023-05-10T01:36:09.951Z,5.38
2023-05-10T01:38:50.984Z,5.03
2023-05-10T01:41:27.716Z,5.25
2023-05-10T01:44:06.639Z,4.93
2023-05-10T01:46:38.489Z,5.60
2023-05-10T01:49:09.586Z,5.72
2023-05-10T01:51:41.772Z,4.65
2023-05-10T01:54:08.322Z,5.15
2023-05-10T01:56:34.994Z,4.82
2023-05-10T01:59:02.392Z,5.65
2023-05-10T02:01:29.216Z,4.72
2023-05-10T02:03:56.354Z,5.20
2023-05-10T02:06:23.073Z,4.18
2023-05-10T02:08:50.452Z,5.50
2023-05-10T02:11:17.149Z,5.30
2023-05-10T02:13:44.544Z,5.55
2023-05-10T02:16:11.166Z,8.23
2023-05-10T02:18:37.869Z,5.78
2023-05-10T02:21:04.559Z,5.97
2023-05-10T02:23:31.282Z,5.30
2023-05-10T02:25:58.019Z,4.90
2023-05-10T02:28:24.830Z,6.47
2023-05-10T02:30:52.055Z,4.93
2023-05-10T02:33:19.080Z,5.00
2023-05-10T02:35:45.846Z,4.93
2023-05-10T02:38:12.822Z,4.25
2023-05-10T02:40:39.462Z,5.22
2023-05-10T02:43:06.159Z,5.40
2023-05-10T02:45:32.859Z,6.43
2023-05-10T02:47:59.649Z,5.65
2023-05-10T02:50:27.853Z,5.88
2023-05-10T02:52:57.439Z,5.32
2023-05-10T02:55:26.661Z,5.15
2023-05-10T02:57:55.390Z,5.70
2023-05-10T03:00:22.081Z,5.13
2023-05-10T03:02:48.797Z,5.82
2023-05-10T03:05:15.559Z,5.25
2023-05-10T03:07:42.225Z,5.53
2023-05-10T03:10:09.098Z,5.53
2023-05-10T03:13:13.416Z,4.95
2023-05-10T03:15:55.893Z,5.63
2023-05-10T03:18:24.057Z,5.35
2023-05-10T03:20:56.591Z,6.15
2023-05-10T03:23:52.624Z,5.93
2023-05-10T03:26:27.651Z,5.60
2023-05-10T03:28:54.330Z,4.72
2023-05-10T03:31:21.091Z,5.13
2023-05-10T03:33:49.347Z,4.97
2023-05-10T03:36:15.984Z,4.97
2023-05-10T03:38:42.842Z,7.43
2023-05-10T03:41:09.500Z,5.30
2023-05-10T03:43:37.620Z,6.03
2023-05-10T03:46:04.738Z,5.03
2023-05-10T03:48:31.740Z,5.13
2023-05-10T03:50:58.414Z,4.85
2023-05-10T03:53:25.279Z,5.68
2023-05-10T03:55:52.038Z,4.65
2023-05-10T03:58:19.394Z,4.80
2023-05-10T04:00:46.525Z,5.30
2023-05-10T04:03:13.400Z,5.30
2023-05-10T04:05:40.375Z,5.28
2023-05-10T04:08:07.132Z,4.93
2023-05-10T04:10:33.804Z,5.35
2023-05-10T04:13:00.663Z,5.00
2023-05-10T04:15:27.314Z,4.18
2023-05-10T04:17:54.832Z,4.68
2023-05-10T04:20:21.498Z,5.15
2023-05-10T04:22:48.133Z,5.47
2023-05-10T04:25:14.902Z,4.95
2023-05-10T04:27:41.601Z,7.18
2023-05-10T04:30:08.708Z,4.80
2023-05-10T04:32:35.464Z,4.88
2023-05-10T04:35:04.571Z,5.20
2023-05-10T04:37:31.428Z,5.03
2023-05-10T04:39:58.078Z,5.35
2023-05-10T04:42:24.637Z,5.03
2023-05-10T04:44:53.115Z,4.85
2023-05-10T04:47:19.999Z,5.38
2023-05-10T04:49:46.679Z,5.93
2023-05-10T04:52:13.362Z,5.57
2023-05-10T04:54:40.280Z,5.60
2023-05-10T04:57:06.966Z,5.78
2023-05-10T04:59:33.635Z,6.43
2023-05-10T05:02:00.370Z,6.10
2023-05-10T05:04:27.031Z,6.43
2023-05-10T05:06:54.074Z,6.78
2023-05-10T05:09:20.977Z,6.70
2023-05-10T05:11:47.666Z,6.50
2023-05-10T05:14:14.276Z,6.80
2023-05-10T05:16:40.990Z,6.05
2023-05-10T05:19:07.670Z,6.82
2023-05-10T05:21:34.419Z,6.43
2023-05-10T05:24:01.776Z,6.75
2023-05-10T05:26:28.599Z,7.45
2023-05-10T05:28:55.706Z,7.28
2023-05-10T05:31:22.664Z,7.10
2023-05-10T05:33:49.302Z,6.85
2023-05-10T05:36:15.963Z,7.60
2023-05-10T05:38:43.027Z,7.68
2023-05-10T05:41:09.618Z,7.38
2023-05-10T05:43:38.203Z,7.53
2023-05-10T05:46:05.494Z,7.78
2023-05-10T05:48:32.319Z,7.55
2023-05-10T05:50:59.067Z,7.28
2023-05-10T05:53:25.860Z,8.38
2023-05-10T05:55:56.405Z,8.52
2023-05-10T05:58:23.557Z,8.05
2023-05-10T06:00:50.377Z,8.15
2023-05-10T06:03:17.344Z,7.32
2023-05-10T06:05:44.070Z,8.77
2023-05-10T06:08:10.850Z,8.32
2023-05-10T06:10:37.861Z,7.35
2023-05-10T06:13:04.619Z,9.55
2023-05-10T06:15:31.337Z,9.07
2023-05-10T06:17:58.043Z,8.93
2023-05-10T06:20:24.721Z,8.60
2023-05-10T06:22:51.391Z,9.10
2023-05-10T06:25:19.268Z,9.57
2023-05-10T06:27:49.809Z,8.82
2023-05-10T06:30:18.619Z,9.40
2023-05-10T06:32:46.242Z,9.02
2023-05-10T06:35:12.988Z,8.55
2023-05-10T06:37:39.885Z,9.38
2023-05-10T06:40:07.552Z,8.93
2023-05-10T06:42:34.237Z,8.57
2023-05-10T06:45:01.030Z,8.15
2023-05-10T06:47:27.779Z,9.40
2023-05-10T06:49:54.648Z,9.75
2023-05-10T06:52:21.239Z,11.38
2023-05-10T06:54:47.888Z,9.27
2023-05-10T06:57:27.566Z,8.90
2023-05-10T06:59:58.040Z,9.35
2023-05-10T07:02:24.671Z,10.43
2023-05-10T07:04:53.148Z,8.32
2023-05-10T07:07:20.106Z,8.88
2023-05-10T07:09:46.797Z,8.38
2023-05-10T07:12:15.392Z,8.05
2023-05-10T07:14:43.011Z,8.15
2023-05-10T07:17:09.986Z,8.50
2023-05-10T07:19:37.032Z,8.27
2023-05-10T07:22:03.852Z,8.88
2023-05-10T07:24:30.927Z,8.48
2023-05-10T07:26:57.626Z,8.68
2023-05-10T07:29:24.285Z,8.80
2023-05-10T07:31:51.186Z,8.38
2023-05-10T07:34:17.887Z,9.57
2023-05-10T07:36:44.687Z,9.35
2023-05-10T07:39:12.707Z,8.95
2023-05-10T07:41:43.088Z,7.88
2023-05-10T07:44:09.753Z,8.40
2023-05-10T07:46:36.485Z,9.45
2023-05-10T07:49:03.275Z,7.70
2023-05-10T07:51:29.992Z,8.52
2023-05-10T07:53:56.673Z,7.03
2023-05-10T07:56:28.119Z,8.50
2023-05-10T07:58:55.437Z,8.05
2023-05-10T08:01:22.239Z,7.00
2023-05-10T08:03:49.283Z,7.75
2023-05-10T08:06:16.548Z,52.92
2023-05-10T08:08:43.384Z,18.50
2023-05-10T08:11:10.189Z,11.20
2023-05-10T08:13:36.800Z,18.45
2023-05-10T08:16:03.540Z,11.63
2023-05-10T08:18:30.461Z,14.00
2023-05-10T08:20:57.154Z,16.10
2023-05-10T08:23:23.853Z,13.05
2023-05-10T08:25:50.575Z,28.35
2023-05-10T08:28:17.242Z,12.65
2023-05-10T08:30:43.951Z,11.32
2023-05-10T08:33:10.759Z,16.10
2023-05-10T08:35:37.527Z,10.25
2023-05-10T08:38:04.390Z,13.27
2023-05-10T08:40:31.086Z,16.98
2023-05-10T08:43:08.280Z,31.20
2023-05-10T08:45:38.625Z,11.55
2023-05-10T08:48:06.730Z,11.68
2023-05-10T08:50:33.477Z,10.82
2023-05-10T08:53:02.168Z,37.10
2023-05-10T08:55:28.922Z,19.48
2023-05-10T08:57:55.876Z,12.68
2023-05-10T09:00:24.080Z,11.05
2023-05-10T09:02:51.298Z,11.75
2023-05-10T09:05:18.937Z,12.98
2023-05-10T09:07:45.966Z,13.75
2023-05-10T09:10:12.604Z,11.63
2023-05-10T09:12:39.383Z,10.95
2023-05-10T09:15:07.171Z,11.18
2023-05-10T09:17:33.977Z,13.52
2023-05-10T09:20:01.325Z,16.70
2023-05-10T09:22:28.296Z,12.07
2023-05-10T09:25:14.594Z,13.07
2023-05-10T09:27:42.261Z,13.35
2023-05-10T09:30:09.562Z,12.07
2023-05-10T09:32:48.149Z,11.68
2023-05-10T09:35:22.657Z,12.52
2023-05-10T09:37:50.936Z,19.23
2023-05-10T09:40:19.057Z,22.73
2023-05-10T09:42:55.724Z,18.33
2023-05-10T09:45:23.439Z,16.45
2023-05-10T09:47:50.186Z,13.45
2023-05-10T09:50:17.293Z,13.57
2023-05-10T09:52:53.780Z,17.65
2023-05-10T09:55:24.378Z,12.70
2023-05-10T09:57:59.726Z,12.27
2023-05-10T10:00:27.198Z,14.82
2023-05-10T10:03:00.444Z,14.02
2023-05-10T10:05:34.267Z,14.77
2023-05-10T10:08:02.761Z,12.88
2023-05-10T10:10:29.411Z,17.67
2023-05-10T10:12:56.447Z,16.77
2023-05-10T10:15:23.783Z,14.95
2023-05-10T10:17:51.205Z,24.08
2023-05-10T10:20:18.851Z,17.45
2023-05-10T10:22:46.713Z,13.95
2023-05-10T10:25:15.149Z,14.25
2023-05-10T10:28:14.903Z,14.02
2023-05-10T10:30:49.323Z,13.63
2023-05-10T10:33:37.931Z,13.95
2023-05-10T10:36:05.030Z,13.35
2023-05-10T10:38:49.333Z,16.13
2023-05-10T10:41:51.383Z,45.40
2023-05-10T10:44:26.981Z,28.65
2023-05-10T10:47:12.600Z,43.33
2023-05-10T10:49:42.644Z,25.98
2023-05-10T10:52:40.788Z,16.60
2023-05-10T10:55:09.437Z,43.63
2023-05-10T10:57:45.292Z,16.05
2023-05-10T11:00:34.172Z,21.55
2023-05-10T11:03:05.423Z,18.23
2023-05-10T11:05:47.807Z,15.63
2023-05-10T11:08:14.379Z,13.63
2023-05-10T11:10:49.711Z,13.93
2023-05-10T11:13:16.411Z,14.25
2023-05-10T11:15:49.445Z,14.88
2023-05-10T11:18:26.554Z,14.05
2023-05-10T11:21:08.314Z,14.57
2023-05-10T11:23:40.985Z,17.75
2023-05-10T11:26:10.617Z,12.85
2023-05-10T11:28:47.538Z,14.00
2023-05-10T11:31:17.878Z,34.08
2023-05-10T11:33:49.056Z,33.20
2023-05-10T11:36:17.138Z,28.02
2023-05-10T11:38:43.811Z,14.27
2023-05-10T11:41:13.767Z,19.23
2023-05-10T11:43:40.801Z,15.85
2023-05-10T11:46:07.787Z,11.73
2023-05-10T11:48:34.526Z,12.05
2023-05-10T11:51:03.014Z,14.30
2023-05-10T11:53:33.353Z,11.18
2023-05-10T11:56:10.239Z,11.05
2023-05-10T11:58:37.850Z,10.40
2023-05-10T12:01:05.460Z,12.38
2023-05-10T12:03:32.351Z,16.05
2023-05-10T12:05:59.448Z,11.50
2023-05-10T12:08:27.314Z,9.75
2023-05-10T12:11:11.485Z,11.07
2023-05-10T12:13:41.936Z,9.98
2023-05-10T12:16:19.095Z,11.50
2023-05-10T12:18:46.417Z,8.93
2023-05-10T12:21:13.302Z,10.45
2023-05-10T12:23:40.416Z,12.30
2023-05-10T12:26:07.264Z,9.73
2023-05-10T12:28:34.082Z,8.93
2023-05-10T12:31:00.901Z,9.23
2023-05-10T12:33:27.601Z,9.05
2023-05-10T12:35:55.326Z,9.00
2023-05-10T12:38:39.174Z,8.98
2023-05-10T12:41:11.674Z,9.73
2023-05-10T12:43:38.879Z,9.15
2023-05-10T12:46:15.746Z,8.27
2023-05-10T12:48:43.491Z,8.70
2023-05-10T12:51:14.201Z,9.93
2023-05-10T12:53:42.723Z,14.50
2023-05-10T12:56:11.324Z,9.73
2023-05-10T12:58:38.030Z,13.02
2023-05-10T13:01:05.857Z,15.38
2023-05-10T13:03:32.658Z,31.30
2023-05-10T13:05:59.420Z,19.52
2023-05-10T13:08:26.257Z,25.70
2023-05-10T13:10:52.899Z,10.43
2023-05-10T13:13:19.567Z,8.73
2023-05-10T13:15:46.254Z,9.43
2023-05-10T13:18:12.934Z,7.75
2023-05-10T13:20:39.809Z,7.97
2023-05-10T13:23:06.518Z,9.38
2023-05-10T13:25:33.394Z,9.50
2023-05-10T13:28:00.150Z,11.32
2023-05-10T13:30:26.839Z,9.77
2023-05-10T13:32:53.620Z,14.40
2023-05-10T13:35:20.403Z,9.73
2023-05-10T13:37:47.101Z,8.85
2023-05-10T13:40:14.704Z,16.65
2023-05-10T13:42:41.984Z,9.07
2023-05-10T13:45:08.979Z,8.98
2023-05-10T13:47:35.734Z,7.43
2023-05-10T13:50:02.966Z,8.48
2023-05-10T13:52:29.598Z,7.70
2023-05-10T13:54:56.381Z,7.32
2023-05-10T13:57:24.068Z,8.07
2023-05-10T13:59:51.302Z,7.97
2023-05-10T14:02:18.095Z,7.30
2023-05-10T14:04:44.848Z,8.18
2023-05-10T14:07:11.543Z,8.80
2023-05-10T14:09:38.270Z,8.30
2023-05-10T14:12:04.976Z,10.27
2023-05-10T14:14:31.741Z,7.38
2023-05-10T14:16:58.513Z,7.03
2023-05-10T14:19:25.149Z,8.38
2023-05-10T14:21:53.036Z,10.95
2023-05-10T14:24:19.601Z,9.73
2023-05-10T14:26:46.244Z,8.55
2023-05-10T14:29:12.965Z,7.80
2023-05-10T14:31:39.814Z,8.80
2023-05-10T14:34:06.807Z,7.35
2023-05-10T14:36:33.639Z,8.20
2023-05-10T14:39:00.371Z,7.75
2023-05-10T14:41:27.254Z,7.50
2023-05-10T14:43:54.260Z,7.68
2023-05-10T14:46:21.158Z,8.60
2023-05-10T14:48:47.871Z,8.23
2023-05-10T14:51:14.846Z,9.43
2023-05-10T14:53:41.711Z,8.35
2023-05-10T14:56:08.564Z,8.40
2023-05-10T14:58:35.232Z,7.68
2023-05-10T15:01:02.229Z,11.80
2023-05-10T15:03:30.014Z,12.93
2023-05-10T15:05:58.764Z,15.25
2023-05-10T15:08:28.828Z,9.57
2023-05-10T15:10:56.963Z,8.40
2023-05-10T15:13:23.644Z,19.90
2023-05-10T15:15:50.660Z,8.77
2023-05-10T15:18:17.903Z,12.65
2023-05-10T15:20:44.722Z,10.65
2023-05-10T15:23:11.391Z,11.13
2023-05-10T15:25:38.526Z,33.83
2023-05-10T15:28:05.466Z,34.15
2023-05-10T15:30:32.148Z,108.53
2023-05-10T15:32:58.918Z,43.67
2023-05-10T15:35:27.018Z,72.53
2023-05-10T15:37:53.672Z,73.18
2023-05-10T15:40:20.466Z,33.25
2023-05-10T15:42:47.172Z,31.50
2023-05-10T15:45:13.920Z,32.53
2023-05-10T15:47:40.723Z,24.67
2023-05-10T15:50:08.412Z,26.52
2023-05-10T15:52:36.141Z,29.52
2023-05-10T15:55:03.630Z,16.25
2023-05-10T15:57:30.425Z,24.60
2023-05-10T15:59:57.155Z,13.85
2023-05-10T16:02:23.999Z,17.70
2023-05-10T16:04:51.663Z,22.33
2023-05-10T16:07:18.457Z,14.70
2023-05-10T16:09:45.149Z,22.73
2023-05-10T16:12:11.743Z,9.13
2023-05-10T16:14:38.404Z,21.50
2023-05-10T16:17:05.217Z,21.73
2023-05-10T16:19:32.231Z,14.10
2023-05-10T16:21:58.975Z,13.65
2023-05-10T16:24:26.376Z,16.23
2023-05-10T16:26:53.131Z,12.70
2023-05-10T16:29:19.819Z,15.75
2023-05-10T16:31:46.994Z,10.40
2023-05-10T16:34:13.660Z,10.00
2023-05-10T16:36:40.502Z,10.90
2023-05-10T16:39:07.424Z,8.20
2023-05-10T16:41:34.512Z,8.90
2023-05-10T16:44:01.793Z,8.85
2023-05-10T16:46:28.477Z,10.18
2023-05-10T16:48:55.184Z,8.23
2023-05-10T16:51:21.835Z,15.55
2023-05-10T16:53:48.421Z,9.45
2023-05-10T16:56:15.081Z,8.90
2023-05-10T16:58:41.844Z,7.70
2023-05-10T17:01:08.564Z,9.65
2023-05-10T17:03:35.817Z,8.45
2023-05-10T17:06:02.625Z,8.65
2023-05-10T17:08:29.217Z,8.48
2023-05-10T17:10:56.395Z,8.18
2023-05-10T17:13:23.303Z,8.55
2023-05-10T17:15:50.093Z,8.93
2023-05-10T17:18:17.466Z,8.77
2023-05-10T17:20:45.165Z,9.00
2023-05-10T17:23:11.922Z,8.73
2023-05-10T17:25:38.759Z,10.40
2023-05-10T17:28:05.550Z,10.02
2023-05-10T17:30:32.847Z,11.93
2023-05-10T17:33:00.233Z,9.57
2023-05-10T17:35:27.021Z,9.20
2023-05-10T17:37:53.876Z,9.52
2023-05-10T17:40:20.561Z,9.85
2023-05-10T17:42:47.252Z,10.07
2023-05-10T17:45:13.941Z,9.50
2023-05-10T17:47:40.691Z,9.55
2023-05-10T17:50:07.596Z,10.10
2023-05-10T17:52:34.299Z,9.80
2023-05-10T17:55:01.017Z,11.98
2023-05-10T17:57:28.130Z,10.82
2023-05-10T17:59:54.863Z,11.23
2023-05-10T18:02:21.549Z,9.73
2023-05-10T18:04:49.436Z,10.23
2023-05-10T18:07:16.551Z,11.05
2023-05-10T18:09:43.237Z,11.73
2023-05-10T18:12:09.821Z,11.18
2023-05-10T18:14:41.244Z,11.10
2023-05-10T18:17:09.272Z,9.35
2023-05-10T18:19:36.069Z,10.60
2023-05-10T18:22:02.859Z,10.32
2023-05-10T18:26:59.156Z,33.30
2023-05-10T18:29:26.088Z,50.97
2023-05-10T18:31:52.784Z,40.17
2023-05-10T18:34:19.399Z,22.52
2023-05-10T18:36:46.361Z,12.77
2023-05-10T18:39:13.351Z,13.07
2023-05-10T18:41:40.090Z,16.83
2023-05-10T18:44:06.719Z,21.98
2023-05-10T18:46:33.792Z,15.68
2023-05-10T18:49:00.513Z,14.80
2023-05-10T18:51:29.573Z,13.57
2023-05-10T18:53:56.354Z,13.75
2023-05-10T18:56:23.768Z,13.38
2023-05-10T18:58:50.368Z,12.95
2023-05-10T19:01:17.189Z,12.02
2023-05-10T19:03:43.824Z,13.77
2023-05-10T19:06:10.948Z,13.18
2023-05-10T19:08:37.707Z,10.15
2023-05-10T19:11:04.366Z,13.45
2023-05-10T19:13:31.157Z,13.07
2023-05-10T19:16:10.927Z,11.10
2023-05-10T19:18:39.398Z,11.52
2023-05-10T19:21:10.439Z,13.15
2023-05-10T19:23:39.663Z,13.38
2023-05-10T19:26:06.395Z,12.93
2023-05-10T19:28:34.215Z,13.65
2023-05-10T19:31:01.828Z,13.05
2023-05-10T19:33:28.745Z,12.57
2023-05-10T19:35:55.675Z,12.10
2023-05-10T19:38:22.962Z,11.00
2023-05-10T19:40:59.557Z,10.93
2023-05-10T19:43:26.810Z,12.00
2023-05-10T19:45:53.995Z,15.60
2023-05-10T19:48:20.735Z,13.57
2023-05-10T19:50:47.327Z,11.15
2023-05-10T19:53:14.080Z,10.90
2023-05-10T19:55:40.789Z,10.82
2023-05-10T19:58:07.381Z,16.80
2023-05-10T20:00:34.207Z,17.55
2023-05-10T20:03:01.319Z,11.77
2023-05-10T20:05:28.818Z,10.43
2023-05-10T20:07:55.501Z,10.10
2023-05-10T20:10:22.113Z,10.30
2023-05-10T20:12:52.891Z,10.98
2023-05-10T20:15:21.067Z,9.70
2023-05-10T20:17:48.090Z,9.32
2023-05-10T20:20:16.630Z,29.25
2023-05-10T20:22:47.172Z,9.15
2023-05-10T20:25:14.339Z,10.23
2023-05-10T20:27:41.000Z,9.52
2023-05-10T20:30:08.071Z,29.20
2023-05-10T20:32:34.813Z,13.20
2023-05-10T20:35:01.633Z,10.68
2023-05-10T20:37:28.730Z,15.82
2023-05-10T20:39:55.600Z,10.63
2023-05-10T20:42:22.401Z,8.75
2023-05-10T20:44:49.889Z,8.93
2023-05-10T20:47:16.708Z,9.90
2023-05-10T20:49:43.700Z,9.20
2023-05-10T20:52:10.403Z,10.25
2023-05-10T20:54:37.113Z,14.65
2023-05-10T20:57:03.902Z,9.57
2023-05-10T20:59:30.641Z,9.73
2023-05-10T21:01:57.701Z,9.13
2023-05-10T21:04:25.583Z,9.85
2023-05-10T21:06:53.074Z,11.88
2023-05-10T21:09:19.811Z,9.20
2023-05-10T21:11:46.641Z,9.23
2023-05-10T21:14:13.251Z,9.70
2023-05-10T21:16:40.162Z,9.30
2023-05-10T21:19:09.662Z,9.77
2023-05-10T21:21:36.423Z,13.88
2023-05-10T21:24:03.309Z,13.82
2023-05-10T21:26:29.952Z,10.30
2023-05-10T21:28:56.628Z,10.25
2023-05-10T21:31:23.443Z,9.50
2023-05-10T21:33:50.263Z,10.02
2023-05-10T21:36:16.893Z,9.50
2023-05-10T21:38:44.553Z,9.05
2023-05-10T21:41:11.250Z,9.85
2023-05-10T21:43:38.049Z,11.52
2023-05-10T21:46:04.814Z,10.98
2023-05-10T21:48:31.486Z,10.00
2023-05-10T21:50:58.848Z,8.45
2023-05-10T21:53:25.485Z,9.98
2023-05-10T21:55:52.314Z,9.45
2023-05-10T21:58:19.012Z,9.68
2023-05-10T22:00:45.620Z,9.55
2023-05-10T22:03:12.415Z,9.35
2023-05-10T22:05:39.286Z,8.80
2023-05-10T22:08:06.582Z,8.32
2023-05-10T22:10:33.387Z,9.93
2023-05-10T22:13:00.364Z,9.07
2023-05-10T22:15:27.215Z,10.30
2023-05-10T22:17:54.020Z,8.13
2023-05-10T22:20:21.209Z,9.68
2023-05-10T22:22:47.930Z,10.07
2023-05-10T22:25:14.741Z,9.07
2023-05-10T22:27:41.490Z,10.55
2023-05-10T22:30:08.697Z,10.55
2023-05-10T22:32:35.460Z,9.10
2023-05-10T22:35:02.378Z,10.32
2023-05-10T22:37:29.078Z,10.27
2023-05-10T22:39:55.755Z,10.63
2023-05-10T22:42:22.367Z,10.32
2023-05-10T22:44:49.012Z,10.40
2023-05-10T22:47:16.487Z,10.30
2023-05-10T22:49:43.140Z,10.18
2023-05-10T22:52:10.838Z,8.90
2023-05-10T22:54:37.472Z,10.00
2023-05-10T22:57:04.153Z,9.48
2023-05-10T22:59:30.967Z,9.15
2023-05-10T23:01:57.667Z,9.10
2023-05-10T23:04:24.298Z,9.20
2023-05-10T23:06:50.994Z,9.20
2023-05-10T23:09:17.582Z,9.57
2023-05-10T23:11:44.278Z,10.00
2023-05-10T23:14:11.047Z,8.90
2023-05-10T23:16:37.772Z,9.63
2023-05-10T23:19:04.595Z,10.48
2023-05-10T23:21:32.251Z,9.40
2023-05-10T23:23:59.395Z,8.55
2023-05-10T23:26:26.015Z,8.50
2023-05-10T23:28:52.651Z,8.80
2023-05-10T23:31:19.378Z,8.43
2023-05-10T23:33:46.159Z,8.85
2023-05-10T23:36:12.772Z,8.52
2023-05-10T23:38:39.654Z,8.52
2023-05-10T23:41:06.280Z,8.35
2023-05-10T23:43:32.921Z,8.85
2023-05-10T23:45:59.732Z,7.90
2023-05-10T23:48:26.411Z,9.27
2023-05-10T23:50:53.105Z,8.82
2023-05-10T23:53:19.859Z,9.23
2023-05-10T23:55:46.831Z,8.90
2023-05-10T23:58:13.469Z,8.48
